Ekin, Indiana
Current Conditions -  °F | °C
As of 8:15 PM on Sunday 21 Dec 2014 (Local Time) from KTYQ Reporting Station
Haze Haze  
Wind Chill: 25°   Ceiling: Unl
Heat Index: 31°   Visibility: 5mi
Dew Point: 26°   Wind: 6mph
Humidity: 82%   Direction: 110°ESE
Pressure: 30.12"   Gusts: NA
Location:  40.1832°N, 85.9359°W
Report Text: KTYQ 220115Z AUTO 11005KT 5SM HZ CLR 00/M03 A3012 RMK AO2 T10051033
Loading
Personal Weather Stations






























Interactive Weather Map New forecast layout! Learn more

10-Day Weather Forecast

Advertisements
Track Severe Weather on mobile